sensor_id;sensor_type;location;lat;lon;timestamp;temperature;humidity
56436;DHT22;42335;44.872;20.658;2023-05-29T00:02:07;486.80;2380.80
56436;DHT22;42335;44.872;20.658;2023-05-29T00:04:33;486.80;2380.80
56436;DHT22;42335;44.872;20.658;2023-05-29T00:06:59;486.80;2380.80
56436;DHT22;42335;44.872;20.658;2023-05-29T00:09:24;486.80;2380.80
56436;DHT22;42335;44.872;20.658;2023-05-29T00:11:50;486.80;2380.80
56436;DHT22;42335;44.872;20.658;2023-05-29T00:14:21;486.80;2380.80
56436;DHT22;42335;44.872;20.658;2023-05-29T00:16:48;486.70;2380.80
56436;DHT22;42335;44.872;20.658;2023-05-29T00:19:15;486.70;2380.80
56436;DHT22;42335;44.872;20.658;2023-05-29T00:21:45;486.80;2380.80
56436;DHT22;42335;44.872;20.658;2023-05-29T00:24:14;486.70;2380.80
56436;DHT22;42335;44.872;20.658;2023-05-29T00:26:40;486.70;2380.80
56436;DHT22;42335;44.872;20.658;2023-05-29T00:29:06;486.70;2380.80
56436;DHT22;42335;44.872;20.658;2023-05-29T00:31:32;486.70;2380.80
56436;DHT22;42335;44.872;20.658;2023-05-29T00:33:57;486.70;2380.80
56436;DHT22;42335;44.872;20.658;2023-05-29T00:36:23;487.00;2380.80
56436;DHT22;42335;44.872;20.658;2023-05-29T00:38:49;486.70;2380.80
56436;DHT22;42335;44.872;20.658;2023-05-29T00:41:15;486.70;2380.80
56436;DHT22;42335;44.872;20.658;2023-05-29T00:46:09;486.90;2380.80
56436;DHT22;42335;44.872;20.658;2023-05-29T00:51:01;486.80;2380.80
56436;DHT22;42335;44.872;20.658;2023-05-29T00:53:27;486.80;2380.80
56436;DHT22;42335;44.872;20.658;2023-05-29T01:46:13;486.60;2380.80
56436;DHT22;42335;44.872;20.658;2023-05-29T02:13:03;486.70;2380.80
56436;DHT22;42335;44.872;20.658;2023-05-29T02:15:29;486.50;2380.80
56436;DHT22;42335;44.872;20.658;2023-05-29T02:17:55;486.40;2380.80
56436;DHT22;42335;44.872;20.658;2023-05-29T02:20:20;461.70;2380.80
56436;DHT22;42335;44.872;20.658;2023-05-29T02:22:46;461.70;2380.80
56436;DHT22;42335;44.872;20.658;2023-05-29T02:25:12;486.40;2380.80
56436;DHT22;42335;44.872;20.658;2023-05-29T02:27:38;461.70;2380.80
56436;DHT22;42335;44.872;20.658;2023-05-29T02:30:04;461.70;2380.80
56436;DHT22;42335;44.872;20.658;2023-05-29T02:32:30;461.70;2380.80
56436;DHT22;42335;44.872;20.658;2023-05-29T02:34:57;461.70;2380.80
56436;DHT22;42335;44.872;20.658;2023-05-29T02:37:23;461.70;2380.80
56436;DHT22;42335;44.872;20.658;2023-05-29T02:39:52;461.70;2380.80
56436;DHT22;42335;44.872;20.658;2023-05-29T02:42:18;461.70;2380.80
56436;DHT22;42335;44.872;20.658;2023-05-29T02:44:43;461.70;2380.80
56436;DHT22;42335;44.872;20.658;2023-05-29T02:47:09;461.70;2380.80
56436;DHT22;42335;44.872;20.658;2023-05-29T02:49:35;461.70;2380.80
56436;DHT22;42335;44.872;20.658;2023-05-29T02:52:00;461.70;2380.80
56436;DHT22;42335;44.872;20.658;2023-05-29T02:54:26;461.70;2380.80
56436;DHT22;42335;44.872;20.658;2023-05-29T02:56:52;461.70;2380.80
56436;DHT22;42335;44.872;20.658;2023-05-29T02:59:18;461.70;2380.80
56436;DHT22;42335;44.872;20.658;2023-05-29T03:01:44;461.60;2380.80
56436;DHT22;42335;44.872;20.658;2023-05-29T03:04:10;486.50;2380.80
56436;DHT22;42335;44.872;20.658;2023-05-29T03:06:36;486.40;2380.80
56436;DHT22;42335;44.872;20.658;2023-05-29T03:09:05;461.70;2380.80
56436;DHT22;42335;44.872;20.658;2023-05-29T03:11:32;461.60;2380.80
56436;DHT22;42335;44.872;20.658;2023-05-29T03:18:50;486.50;2380.80
56436;DHT22;42335;44.872;20.658;2023-05-29T03:21:16;461.70;2380.80
56436;DHT22;42335;44.872;20.658;2023-05-29T03:23:42;461.70;2380.80
56436;DHT22;42335;44.872;20.658;2023-05-29T03:26:08;461.60;2380.80
56436;DHT22;42335;44.872;20.658;2023-05-29T03:28:34;461.60;2380.80
56436;DHT22;42335;44.872;20.658;2023-05-29T03:31:00;461.60;2380.80
56436;DHT22;42335;44.872;20.658;2023-05-29T03:35:51;486.50;2380.80
56436;DHT22;42335;44.872;20.658;2023-05-29T03:38:17;461.60;2380.80
56436;DHT22;42335;44.872;20.658;2023-05-29T03:40:43;461.60;2380.80
56436;DHT22;42335;44.872;20.658;2023-05-29T03:43:08;461.60;2380.80
56436;DHT22;42335;44.872;20.658;2023-05-29T03:45:34;461.60;2380.80
56436;DHT22;42335;44.872;20.658;2023-05-29T03:48:00;461.60;2380.80
56436;DHT22;42335;44.872;20.658;2023-05-29T03:50:25;461.60;2380.80
56436;DHT22;42335;44.872;20.658;2023-05-29T03:52:51;461.60;2380.80
56436;DHT22;42335;44.872;20.658;2023-05-29T03:55:16;461.60;2380.80
56436;DHT22;42335;44.872;20.658;2023-05-29T03:57:42;461.60;2380.80
56436;DHT22;42335;44.872;20.658;2023-05-29T04:00:09;461.60;2380.80
56436;DHT22;42335;44.872;20.658;2023-05-29T04:02:40;461.70;2380.80
56436;DHT22;42335;44.872;20.658;2023-05-29T04:05:06;461.70;2380.80
56436;DHT22;42335;44.872;20.658;2023-05-29T04:07:33;461.70;2380.80
56436;DHT22;42335;44.872;20.658;2023-05-29T04:09:58;461.70;2380.80
56436;DHT22;42335;44.872;20.658;2023-05-29T04:12:24;461.70;2380.80
56436;DHT22;42335;44.872;20.658;2023-05-29T04:14:50;461.70;2380.80
56436;DHT22;42335;44.872;20.658;2023-05-29T04:17:16;461.70;2380.80
56436;DHT22;42335;44.872;20.658;2023-05-29T04:19:41;461.70;2380.80
56436;DHT22;42335;44.872;20.658;2023-05-29T04:22:07;461.70;2380.80
56436;DHT22;42335;44.872;20.658;2023-05-29T04:24:33;461.70;2380.80
56436;DHT22;42335;44.872;20.658;2023-05-29T04:26:59;461.70;2380.80
56436;DHT22;42335;44.872;20.658;2023-05-29T04:29:29;486.40;2380.80
56436;DHT22;42335;44.872;20.658;2023-05-29T04:31:54;461.70;2380.80
56436;DHT22;42335;44.872;20.658;2023-05-29T04:34:21;486.40;2380.80
56436;DHT22;42335;44.872;20.658;2023-05-29T04:36:47;486.40;2380.80
56436;DHT22;42335;44.872;20.658;2023-05-29T04:39:13;486.40;2380.80
56436;DHT22;42335;44.872;20.658;2023-05-29T04:41:40;486.40;2380.80
56436;DHT22;42335;44.872;20.658;2023-05-29T04:44:06;486.40;2380.80
56436;DHT22;42335;44.872;20.658;2023-05-29T04:46:33;486.50;2380.80
56436;DHT22;42335;44.872;20.658;2023-05-29T04:49:00;486.50;2380.80
56436;DHT22;42335;44.872;20.658;2023-05-29T04:51:28;486.40;2380.80
56436;DHT22;42335;44.872;20.658;2023-05-29T04:53:55;486.40;2380.80
56436;DHT22;42335;44.872;20.658;2023-05-29T04:56:22;486.40;2380.80
56436;DHT22;42335;44.872;20.658;2023-05-29T04:58:48;486.50;2380.80
56436;DHT22;42335;44.872;20.658;2023-05-29T05:01:14;486.50;2380.80
56436;DHT22;42335;44.872;20.658;2023-05-29T05:03:43;486.50;2380.80
56436;DHT22;42335;44.872;20.658;2023-05-29T05:06:09;486.50;2380.80
56436;DHT22;42335;44.872;20.658;2023-05-29T05:08:35;486.50;2380.80
56436;DHT22;42335;44.872;20.658;2023-05-29T05:11:01;486.70;2380.80
56436;DHT22;42335;44.872;20.658;2023-05-29T05:13:27;486.70;2380.80
56436;DHT22;42335;44.872;20.658;2023-05-29T05:15:54;486.70;2380.80
56436;DHT22;42335;44.872;20.658;2023-05-29T05:18:20;486.80;2380.80
56436;DHT22;42335;44.872;20.658;2023-05-29T05:20:46;486.70;2380.80
56436;DHT22;42335;44.872;20.658;2023-05-29T05:23:12;486.50;2380.80
56436;DHT22;42335;44.872;20.658;2023-05-29T05:25:37;486.40;2380.80
56436;DHT22;42335;44.872;20.658;2023-05-29T05:28:04;486.40;2380.80
56436;DHT22;42335;44.872;20.658;2023-05-29T05:30:30;486.40;2380.80
56436;DHT22;42335;44.872;20.658;2023-05-29T05:32:57;486.40;2380.80
56436;DHT22;42335;44.872;20.658;2023-05-29T05:35:23;486.40;2380.80
56436;DHT22;42335;44.872;20.658;2023-05-29T05:37:48;486.40;2380.80
56436;DHT22;42335;44.872;20.658;2023-05-29T05:40:14;486.40;2380.80
56436;DHT22;42335;44.872;20.658;2023-05-29T05:42:40;486.40;2380.80
56436;DHT22;42335;44.872;20.658;2023-05-29T05:45:06;486.40;2380.80
56436;DHT22;42335;44.872;20.658;2023-05-29T05:47:41;486.40;2380.80
56436;DHT22;42335;44.872;20.658;2023-05-29T05:50:07;486.40;2380.80
56436;DHT22;42335;44.872;20.658;2023-05-29T05:52:39;486.50;2380.80
56436;DHT22;42335;44.872;20.658;2023-05-29T05:55:06;486.50;2380.80
56436;DHT22;42335;44.872;20.658;2023-05-29T05:57:33;486.50;2380.80
56436;DHT22;42335;44.872;20.658;2023-05-29T05:59:59;486.50;2380.80
56436;DHT22;42335;44.872;20.658;2023-05-29T06:02:26;486.50;2380.80
56436;DHT22;42335;44.872;20.658;2023-05-29T06:04:51;486.50;2380.80
56436;DHT22;42335;44.872;20.658;2023-05-29T06:07:17;486.50;2380.80
56436;DHT22;42335;44.872;20.658;2023-05-29T06:09:43;486.50;2380.80
56436;DHT22;42335;44.872;20.658;2023-05-29T06:12:09;486.50;2380.80
56436;DHT22;42335;44.872;20.658;2023-05-29T06:14:35;486.60;2380.80
56436;DHT22;42335;44.872;20.658;2023-05-29T06:17:01;486.70;2380.80
56436;DHT22;42335;44.872;20.658;2023-05-29T06:19:26;486.70;2380.80
56436;DHT22;42335;44.872;20.658;2023-05-29T06:21:52;486.70;2380.80
56436;DHT22;42335;44.872;20.658;2023-05-29T06:24:21;486.70;2380.80
56436;DHT22;42335;44.872;20.658;2023-05-29T06:26:47;486.80;2380.80
56436;DHT22;42335;44.872;20.658;2023-05-29T06:29:13;486.90;2380.80
56436;DHT22;42335;44.872;20.658;2023-05-29T06:31:38;486.90;2380.80
56436;DHT22;42335;44.872;20.658;2023-05-29T06:34:04;486.80;2380.80
56436;DHT22;42335;44.872;20.658;2023-05-29T06:36:31;486.90;2380.80
56436;DHT22;42335;44.872;20.658;2023-05-29T06:38:57;487.00;2380.80
56436;DHT22;42335;44.872;20.658;2023-05-29T06:41:23;487.10;2380.80
56436;DHT22;42335;44.872;20.658;2023-05-29T06:43:49;487.10;2380.80
56436;DHT22;42335;44.872;20.658;2023-05-29T06:46:15;487.20;2380.80
56436;DHT22;42335;44.872;20.658;2023-05-29T06:48:41;487.30;2380.80
56436;DHT22;42335;44.872;20.658;2023-05-29T06:51:06;487.30;2380.80
56436;DHT22;42335;44.872;20.658;2023-05-29T06:53:40;512.00;2380.80
56436;DHT22;42335;44.872;20.658;2023-05-29T06:56:06;512.00;2380.80
56436;DHT22;42335;44.872;20.658;2023-05-29T06:58:32;512.10;2380.80
56436;DHT22;42335;44.872;20.658;2023-05-29T07:00:59;512.00;2380.80
56436;DHT22;42335;44.872;20.658;2023-05-29T07:03:28;512.10;2380.80
56436;DHT22;42335;44.872;20.658;2023-05-29T07:05:54;512.00;2380.80
56436;DHT22;42335;44.872;20.658;2023-05-29T07:08:20;512.00;2380.80
56436;DHT22;42335;44.872;20.658;2023-05-29T07:10:46;512.00;2380.80
56436;DHT22;42335;44.872;20.658;2023-05-29T07:13:15;512.20;2380.80
56436;DHT22;42335;44.872;20.658;2023-05-29T07:15:42;512.30;2380.80
56436;DHT22;42335;44.872;20.658;2023-05-29T07:18:07;512.50;2380.80
56436;DHT22;42335;44.872;20.658;2023-05-29T07:20:33;512.60;2380.80
56436;DHT22;42335;44.872;20.658;2023-05-29T07:22:59;512.60;2380.80
56436;DHT22;42335;44.872;20.658;2023-05-29T07:25:25;512.70;2380.80
56436;DHT22;42335;44.872;20.658;2023-05-29T07:27:51;512.80;2380.80
56436;DHT22;42335;44.872;20.658;2023-05-29T07:30:17;512.90;2380.80
56436;DHT22;42335;44.872;20.658;2023-05-29T07:32:43;512.90;2380.80
56436;DHT22;42335;44.872;20.658;2023-05-29T07:35:09;537.60;2406.40
56436;DHT22;42335;44.872;20.658;2023-05-29T07:37:35;537.70;2406.40
56436;DHT22;42335;44.872;20.658;2023-05-29T07:40:01;537.70;2406.40
56436;DHT22;42335;44.872;20.658;2023-05-29T07:42:27;537.70;2406.40
56436;DHT22;42335;44.872;20.658;2023-05-29T07:44:52;537.70;2406.40
56436;DHT22;42335;44.872;20.658;2023-05-29T07:47:18;537.60;2406.40
56436;DHT22;42335;44.872;20.658;2023-05-29T07:49:43;537.70;2406.40
56436;DHT22;42335;44.872;20.658;2023-05-29T07:52:09;537.80;2406.40
56436;DHT22;42335;44.872;20.658;2023-05-29T07:54:35;537.80;2406.40
56436;DHT22;42335;44.872;20.658;2023-05-29T07:57:01;538.00;2406.40
56436;DHT22;42335;44.872;20.658;2023-05-29T07:59:36;538.00;2406.40
56436;DHT22;42335;44.872;20.658;2023-05-29T08:02:01;538.10;2406.40
56436;DHT22;42335;44.872;20.658;2023-05-29T08:04:29;538.30;2406.40
56436;DHT22;42335;44.872;20.658;2023-05-29T08:06:55;538.40;2406.40
56436;DHT22;42335;44.872;20.658;2023-05-29T08:09:20;538.50;2406.40
56436;DHT22;42335;44.872;20.658;2023-05-29T08:11:48;563.20;2432.00
56436;DHT22;42335;44.872;20.658;2023-05-29T08:14:14;563.40;2432.00
56436;DHT22;42335;44.872;20.658;2023-05-29T08:16:41;563.50;2432.00
56436;DHT22;42335;44.872;20.658;2023-05-29T08:19:06;563.80;2432.00
56436;DHT22;42335;44.872;20.658;2023-05-29T08:21:32;563.80;2432.00
56436;DHT22;42335;44.872;20.658;2023-05-29T08:23:58;563.90;2432.00
56436;DHT22;42335;44.872;20.658;2023-05-29T08:31:16;588.90;2432.00
56436;DHT22;42335;44.872;20.658;2023-05-29T08:33:42;564.10;2432.00
56436;DHT22;42335;44.872;20.658;2023-05-29T08:36:08;564.10;2432.00
56436;DHT22;42335;44.872;20.658;2023-05-29T08:41:01;589.20;2432.00
56436;DHT22;42335;44.872;20.658;2023-05-29T11:13:33;691.80;2176.00
56436;DHT22;42335;44.872;20.658;2023-05-29T11:18:47;691.70;2048.00
56436;DHT22;42335;44.872;20.658;2023-05-29T11:24:25;691.60;2124.80
56436;DHT22;42335;44.872;20.658;2023-05-29T11:26:53;691.70;2150.40
56436;DHT22;42335;44.872;20.658;2023-05-29T11:31:54;691.60;1996.80
56436;DHT22;42335;44.872;20.658;2023-05-29T11:36:51;692.00;1971.20
56436;DHT22;42335;44.872;20.658;2023-05-29T11:49:06;692.10;1945.60
56436;DHT22;42335;44.872;20.658;2023-05-29T11:58:51;691.30;1920.00
56436;DHT22;42335;44.872;20.658;2023-05-29T12:01:20;666.50;1920.00
56436;DHT22;42335;44.872;20.658;2023-05-29T12:11:05;640.60;2073.60
56436;DHT22;42335;44.872;20.658;2023-05-29T12:25:46;614.80;2432.00
56436;DHT22;42335;44.872;20.658;2023-05-29T12:28:16;614.50;2432.00
56436;DHT22;42335;44.872;20.658;2023-05-29T12:30:44;614.50;2432.00
56436;DHT22;42335;44.872;20.658;2023-05-29T12:33:31;614.60;2432.00
56436;DHT22;42335;44.872;20.658;2023-05-29T12:36:08;614.40;2432.00
56436;DHT22;42335;44.872;20.658;2023-05-29T12:41:29;614.40;2432.00
56436;DHT22;42335;44.872;20.658;2023-05-29T12:43:56;589.50;2432.00
56436;DHT22;42335;44.872;20.658;2023-05-29T12:46:23;589.40;2432.00
56436;DHT22;42335;44.872;20.658;2023-05-29T12:48:49;589.40;2432.00
56436;DHT22;42335;44.872;20.658;2023-05-29T12:51:17;589.30;2432.00
56436;DHT22;42335;44.872;20.658;2023-05-29T12:53:43;589.30;2432.00
56436;DHT22;42335;44.872;20.658;2023-05-29T12:56:09;589.30;2432.00
56436;DHT22;42335;44.872;20.658;2023-05-29T13:01:00;589.50;2432.00
56436;DHT22;42335;44.872;20.658;2023-05-29T13:03:26;589.20;2432.00
56436;DHT22;42335;44.872;20.658;2023-05-29T13:05:52;589.10;2432.00
56436;DHT22;42335;44.872;20.658;2023-05-29T13:08:21;589.10;2432.00
56436;DHT22;42335;44.872;20.658;2023-05-29T13:10:46;589.10;2432.00
56436;DHT22;42335;44.872;20.658;2023-05-29T13:13:12;589.10;2432.00
56436;DHT22;42335;44.872;20.658;2023-05-29T13:15:38;589.10;2432.00
56436;DHT22;42335;44.872;20.658;2023-05-29T13:18:05;589.10;2432.00
56436;DHT22;42335;44.872;20.658;2023-05-29T13:20:31;589.20;2432.00
56436;DHT22;42335;44.872;20.658;2023-05-29T13:22:57;589.20;2432.00
56436;DHT22;42335;44.872;20.658;2023-05-29T13:25:23;589.20;2432.00
56436;DHT22;42335;44.872;20.658;2023-05-29T13:27:51;589.30;2432.00
56436;DHT22;42335;44.872;20.658;2023-05-29T13:30:17;589.20;2432.00
56436;DHT22;42335;44.872;20.658;2023-05-29T13:32:43;589.30;2432.00
56436;DHT22;42335;44.872;20.658;2023-05-29T13:35:09;589.30;2432.00
56436;DHT22;42335;44.872;20.658;2023-05-29T13:37:38;589.40;2432.00
56436;DHT22;42335;44.872;20.658;2023-05-29T13:40:05;589.50;2432.00
56436;DHT22;42335;44.872;20.658;2023-05-29T13:42:32;589.50;2432.00
56436;DHT22;42335;44.872;20.658;2023-05-29T13:44:58;589.40;2432.00
56436;DHT22;42335;44.872;20.658;2023-05-29T13:47:23;589.50;2432.00
56436;DHT22;42335;44.872;20.658;2023-05-29T13:49:52;589.40;2432.00
56436;DHT22;42335;44.872;20.658;2023-05-29T13:52:19;589.40;2432.00
56436;DHT22;42335;44.872;20.658;2023-05-29T13:54:44;589.50;2432.00
56436;DHT22;42335;44.872;20.658;2023-05-29T13:57:10;589.50;2432.00
56436;DHT22;42335;44.872;20.658;2023-05-29T13:59:36;589.50;2432.00
56436;DHT22;42335;44.872;20.658;2023-05-29T14:02:02;589.40;2432.00
56436;DHT22;42335;44.872;20.658;2023-05-29T14:04:29;589.50;2432.00
56436;DHT22;42335;44.872;20.658;2023-05-29T14:06:55;589.40;2432.00
56436;DHT22;42335;44.872;20.658;2023-05-29T14:09:25;589.50;2432.00
56436;DHT22;42335;44.872;20.658;2023-05-29T14:11:54;589.40;2432.00
56436;DHT22;42335;44.872;20.658;2023-05-29T14:14:21;589.40;2432.00
56436;DHT22;42335;44.872;20.658;2023-05-29T14:16:48;589.50;2432.00
56436;DHT22;42335;44.872;20.658;2023-05-29T14:19:14;589.50;2432.00
56436;DHT22;42335;44.872;20.658;2023-05-29T14:21:39;589.50;2432.00
56436;DHT22;42335;44.872;20.658;2023-05-29T14:24:05;589.40;2432.00
56436;DHT22;42335;44.872;20.658;2023-05-29T14:26:32;589.20;2432.00
56436;DHT22;42335;44.872;20.658;2023-05-29T14:28:58;589.10;2432.00
56436;DHT22;42335;44.872;20.658;2023-05-29T14:31:24;589.00;2432.00
56436;DHT22;42335;44.872;20.658;2023-05-29T14:33:49;589.10;2432.00
56436;DHT22;42335;44.872;20.658;2023-05-29T14:36:15;589.00;2432.00
56436;DHT22;42335;44.872;20.658;2023-05-29T14:38:41;589.10;2432.00
56436;DHT22;42335;44.872;20.658;2023-05-29T14:41:08;589.00;2432.00
56436;DHT22;42335;44.872;20.658;2023-05-29T14:43:34;589.00;2432.00
56436;DHT22;42335;44.872;20.658;2023-05-29T14:45:59;589.00;2432.00
56436;DHT22;42335;44.872;20.658;2023-05-29T14:48:25;589.00;2432.00
56436;DHT22;42335;44.872;20.658;2023-05-29T14:50:51;588.90;2432.00
56436;DHT22;42335;44.872;20.658;2023-05-29T14:53:17;588.90;2432.00
56436;DHT22;42335;44.872;20.658;2023-05-29T14:55:43;588.90;2432.00
56436;DHT22;42335;44.872;20.658;2023-05-29T14:58:09;588.90;2432.00
56436;DHT22;42335;44.872;20.658;2023-05-29T15:00:35;588.90;2432.00
56436;DHT22;42335;44.872;20.658;2023-05-29T15:03:01;589.00;2432.00
56436;DHT22;42335;44.872;20.658;2023-05-29T15:05:28;588.90;2432.00
56436;DHT22;42335;44.872;20.658;2023-05-29T15:07:55;564.10;2432.00
56436;DHT22;42335;44.872;20.658;2023-05-29T15:10:23;564.00;2432.00
56436;DHT22;42335;44.872;20.658;2023-05-29T15:12:50;564.00;2432.00
56436;DHT22;42335;44.872;20.658;2023-05-29T15:15:23;564.00;2432.00
56436;DHT22;42335;44.872;20.658;2023-05-29T15:17:49;563.90;2432.00
56436;DHT22;42335;44.872;20.658;2023-05-29T15:20:19;563.80;2432.00
56436;DHT22;42335;44.872;20.658;2023-05-29T15:22:46;563.90;2432.00
56436;DHT22;42335;44.872;20.658;2023-05-29T15:25:12;563.80;2432.00
56436;DHT22;42335;44.872;20.658;2023-05-29T15:27:37;563.70;2432.00
56436;DHT22;42335;44.872;20.658;2023-05-29T15:30:14;563.70;2432.00
56436;DHT22;42335;44.872;20.658;2023-05-29T15:32:42;563.70;2432.00
56436;DHT22;42335;44.872;20.658;2023-05-29T15:35:11;563.70;2432.00
56436;DHT22;42335;44.872;20.658;2023-05-29T15:37:38;563.70;2432.00
56436;DHT22;42335;44.872;20.658;2023-05-29T15:40:04;564.00;2432.00
56436;DHT22;42335;44.872;20.658;2023-05-29T15:42:31;563.70;2432.00
56436;DHT22;42335;44.872;20.658;2023-05-29T15:44:57;563.70;2432.00
56436;DHT22;42335;44.872;20.658;2023-05-29T15:47:22;563.70;2432.00
56436;DHT22;42335;44.872;20.658;2023-05-29T15:49:49;563.80;2432.00
56436;DHT22;42335;44.872;20.658;2023-05-29T15:52:15;563.80;2432.00
56436;DHT22;42335;44.872;20.658;2023-05-29T15:54:40;563.80;2432.00
56436;DHT22;42335;44.872;20.658;2023-05-29T15:57:06;563.80;2432.00
56436;DHT22;42335;44.872;20.658;2023-05-29T15:59:32;563.70;2432.00
56436;DHT22;42335;44.872;20.658;2023-05-29T16:01:58;563.80;2432.00
56436;DHT22;42335;44.872;20.658;2023-05-29T16:04:26;563.80;2432.00
56436;DHT22;42335;44.872;20.658;2023-05-29T16:06:51;563.90;2432.00
56436;DHT22;42335;44.872;20.658;2023-05-29T16:09:17;563.90;2432.00
56436;DHT22;42335;44.872;20.658;2023-05-29T16:11:43;563.90;2432.00
56436;DHT22;42335;44.872;20.658;2023-05-29T16:14:09;563.90;2432.00
56436;DHT22;42335;44.872;20.658;2023-05-29T16:16:35;564.10;2432.00
56436;DHT22;42335;44.872;20.658;2023-05-29T16:19:03;564.00;2432.00
56436;DHT22;42335;44.872;20.658;2023-05-29T16:21:29;564.10;2432.00
56436;DHT22;42335;44.872;20.658;2023-05-29T16:23:56;564.00;2432.00
56436;DHT22;42335;44.872;20.658;2023-05-29T16:26:26;564.10;2432.00
56436;DHT22;42335;44.872;20.658;2023-05-29T16:28:59;564.00;2432.00
56436;DHT22;42335;44.872;20.658;2023-05-29T16:31:25;564.10;2432.00
56436;DHT22;42335;44.872;20.658;2023-05-29T16:33:51;564.10;2432.00
56436;DHT22;42335;44.872;20.658;2023-05-29T16:36:18;564.10;2432.00
56436;DHT22;42335;44.872;20.658;2023-05-29T16:38:44;564.10;2432.00
56436;DHT22;42335;44.872;20.658;2023-05-29T16:41:09;564.00;2432.00
56436;DHT22;42335;44.872;20.658;2023-05-29T16:43:35;564.00;2432.00
56436;DHT22;42335;44.872;20.658;2023-05-29T16:46:01;564.00;2432.00
56436;DHT22;42335;44.872;20.658;2023-05-29T16:48:27;563.90;2432.00
56436;DHT22;42335;44.872;20.658;2023-05-29T16:50:53;563.90;2432.00
56436;DHT22;42335;44.872;20.658;2023-05-29T16:53:18;563.90;2432.00
56436;DHT22;42335;44.872;20.658;2023-05-29T16:55:44;563.90;2432.00
56436;DHT22;42335;44.872;20.658;2023-05-29T16:58:10;563.90;2432.00
56436;DHT22;42335;44.872;20.658;2023-05-29T17:00:36;563.90;2432.00
56436;DHT22;42335;44.872;20.658;2023-05-29T17:03:02;563.90;2432.00
56436;DHT22;42335;44.872;20.658;2023-05-29T17:05:29;564.10;2432.00
56436;DHT22;42335;44.872;20.658;2023-05-29T17:07:55;564.10;2432.00
56436;DHT22;42335;44.872;20.658;2023-05-29T17:10:21;563.90;2432.00
56436;DHT22;42335;44.872;20.658;2023-05-29T17:12:46;564.10;2432.00
56436;DHT22;42335;44.872;20.658;2023-05-29T17:15:12;564.00;2432.00
56436;DHT22;42335;44.872;20.658;2023-05-29T17:17:38;563.90;2432.00
56436;DHT22;42335;44.872;20.658;2023-05-29T17:20:04;563.80;2432.00
56436;DHT22;42335;44.872;20.658;2023-05-29T20:16:01;512.20;2380.80
